Saturday, May 26, 2018, 8:03 AM EDT
Back to Local

KWWD, Wildwood, Cape May County Airport

Location: Villas, NJ, United States Lat: 39.017
Local Time: 8:03 AM EDT (12:03 GMT) Lon: -74.917
Time Zone: US/Eastern Elev: 22 ft

Show me the last for .
Show Decoded

2018-05-26 06:55 METAR KWWD 261055Z AUTO 21009KT 10SM CLR 23/20 A2989 RMK AO2 SLP123 T02280200 =
2018-05-26 05:55 METAR KWWD 260955Z AUTO 21008KT 10SM BKN110 22/19 A2989 RMK AO2 SLP122 T02170194
                 =
2018-05-26 04:55 METAR KWWD 260855Z AUTO 21006KT 10SM FEW120 21/19 A2989 RMK AO2 SLP122 T02110189
                 56008 =
2018-05-26 03:55 METAR KWWD 260755Z AUTO 21006KT 10SM CLR 21/19 A2989 RMK AO2 SLP124 T02110189 =
2018-05-26 02:55 METAR KWWD 260655Z AUTO 20008KT 10SM CLR 21/18 A2990 RMK AO2 SLP127 T02110183 =
2018-05-26 01:55 METAR KWWD 260555Z AUTO 21007KT 10SM CLR 21/18 A2991 RMK AO2 SLP130 T02110183
                 10222 20206 58007 =
2018-05-26 00:55 METAR KWWD 260455Z AUTO 20008KT 10SM CLR 21/18 A2992 RMK AO2 SLP133 T02110178
                 402780144 =
2018-05-25 23:55 METAR KWWD 260355Z AUTO 20007KT 10SM CLR 21/18 A2993 RMK AO2 SLP136 T02060178 =
2018-05-25 22:55 METAR KWWD 260255Z AUTO 20009KT 10SM CLR 21/18 A2993 RMK AO2 SLP138 T02110178
                 56001 =
2018-05-25 21:55 METAR KWWD 260155Z AUTO 20009KT 10SM CLR 22/17 A2993 RMK AO2 SLP139 T02170172 =
2018-05-25 20:55 METAR KWWD 260055Z AUTO 19010KT 10SM CLR 22/17 A2993 RMK AO2 SLP137 T02220172 =
2018-05-25 19:55 METAR KWWD 252355Z AUTO 19009KT 10SM CLR 22/17 A2994 RMK AO2 SLP139 T02220167
                 10278 20222 56006 =
2018-05-25 18:55 METAR KWWD 252255Z AUTO 19009KT 10SM CLR 24/17 A2994 RMK AO2 SLP140 T02440167 =
2018-05-25 17:55 METAR KWWD 252155Z AUTO 18009KT 10SM CLR 26/17 A2994 RMK AO2 SLP142 T02610172 =
2018-05-25 16:55 METAR KWWD 252055Z AUTO 20008KT 10SM CLR 27/18 A2995 RMK AO2 SLP145 T02670178
                 56020 =
2018-05-25 15:55 METAR KWWD 251955Z AUTO 18011KT 10SM CLR 27/18 A2997 RMK AO2 SLP149 T02670183 =
2018-05-25 13:55 METAR KWWD 251755Z AUTO 18007KT 10SM CLR 27/19 A3001 RMK AO2 SLP165 T02720189
                 10278 20211 58021 =
2018-05-25 12:55 METAR KWWD 251655Z AUTO 21010KT 10SM CLR 27/18 A3003 RMK AO2 SLP172 T02720178 =
2018-05-25 12:14 METAR KWWD 251614Z AUTO 24011G17KT 10SM FEW003 27/18 A3005 RMK AO2 =
2018-05-25 11:55 METAR KWWD 251555Z AUTO 24011KT 5SM HZ CLR 27/18 A3006 RMK AO2 SLP181 T02670183
                 =
2018-05-25 10:55 METAR KWWD 251455Z AUTO 24010KT 10SM CLR 26/18 A3007 RMK AO2 SLP186 T02560178
                 58014 =
2018-05-25 09:55 METAR KWWD 251355Z AUTO 22012KT 10SM CLR 24/17 A3009 RMK AO2 SLP191 T02390172 =
2018-05-25 08:55 METAR KWWD 251255Z AUTO 23011KT 10SM CLR 23/17 A3010 RMK AO2 SLP195 T02280172 =

Support USWX by starting your Amazon purchase here.